sensor_id;sensor_type;location;lat;lon;timestamp;temperature;humidity
21928;DHT22;11128;51.096;17.190;2023-03-05T00:04:46;1.90;1.00
21928;DHT22;11128;51.096;17.190;2023-03-05T00:09:47;1.80;1.00
21928;DHT22;11128;51.096;17.190;2023-03-05T00:14:48;2.70;1.00
21928;DHT22;11128;51.096;17.190;2023-03-05T00:19:49;1.80;99.90
21928;DHT22;11128;51.096;17.190;2023-03-05T00:24:51;1.80;99.90
21928;DHT22;11128;51.096;17.190;2023-03-05T00:29:52;1.80;99.90
21928;DHT22;11128;51.096;17.190;2023-03-05T00:34:53;1.80;99.90
21928;DHT22;11128;51.096;17.190;2023-03-05T00:39:55;2.00;99.90
21928;DHT22;11128;51.096;17.190;2023-03-05T00:44:57;1.80;99.90
21928;DHT22;11128;51.096;17.190;2023-03-05T00:49:58;1.70;99.90
21928;DHT22;11128;51.096;17.190;2023-03-05T00:54:59;1.90;99.90
21928;DHT22;11128;51.096;17.190;2023-03-05T01:00:00;1.70;99.90
21928;DHT22;11128;51.096;17.190;2023-03-05T01:05:02;1.70;99.90
21928;DHT22;11128;51.096;17.190;2023-03-05T01:10:04;1.60;99.90
21928;DHT22;11128;51.096;17.190;2023-03-05T01:15:06;1.60;1.00
21928;DHT22;11128;51.096;17.190;2023-03-05T01:20:11;1.60;99.90
21928;DHT22;11128;51.096;17.190;2023-03-05T01:25:14;1.60;99.90
21928;DHT22;11128;51.096;17.190;2023-03-05T01:30:15;1.50;99.90
21928;DHT22;11128;51.096;17.190;2023-03-05T01:35:20;1.50;99.90
21928;DHT22;11128;51.096;17.190;2023-03-05T01:40:28;1.50;99.90
21928;DHT22;11128;51.096;17.190;2023-03-05T01:45:30;2.00;99.90
21928;DHT22;11128;51.096;17.190;2023-03-05T01:50:32;1.50;99.90
21928;DHT22;11128;51.096;17.190;2023-03-05T01:55:33;1.50;7.80
21928;DHT22;11128;51.096;17.190;2023-03-05T02:00:40;1.70;99.90
21928;DHT22;11128;51.096;17.190;2023-03-05T02:05:43;1.40;1.00
21928;DHT22;11128;51.096;17.190;2023-03-05T02:10:47;1.40;58.90
21928;DHT22;11128;51.096;17.190;2023-03-05T02:15:50;1.40;99.90
21928;DHT22;11128;51.096;17.190;2023-03-05T02:25:56;1.40;99.90
21928;DHT22;11128;51.096;17.190;2023-03-05T02:30:57;1.40;99.90
21928;DHT22;11128;51.096;17.190;2023-03-05T02:35:58;1.40;99.90
21928;DHT22;11128;51.096;17.190;2023-03-05T02:41:00;1.40;99.90
21928;DHT22;11128;51.096;17.190;2023-03-05T02:46:01;1.40;99.90
21928;DHT22;11128;51.096;17.190;2023-03-05T02:51:03;1.10;1.00
21928;DHT22;11128;51.096;17.190;2023-03-05T02:56:05;1.10;1.00
21928;DHT22;11128;51.096;17.190;2023-03-05T03:01:07;1.00;1.00
21928;DHT22;11128;51.096;17.190;2023-03-05T03:06:09;1.70;1.00
21928;DHT22;11128;51.096;17.190;2023-03-05T03:11:11;0.80;1.00
21928;DHT22;11128;51.096;17.190;2023-03-05T03:16:14;0.70;99.90
21928;DHT22;11128;51.096;17.190;2023-03-05T03:21:21;1.10;99.90
21928;DHT22;11128;51.096;17.190;2023-03-05T03:26:23;0.60;1.00
21928;DHT22;11128;51.096;17.190;2023-03-05T03:31:24;0.60;1.00
21928;DHT22;11128;51.096;17.190;2023-03-05T03:36:26;0.60;99.90
21928;DHT22;11128;51.096;17.190;2023-03-05T03:41:27;0.50;99.90
21928;DHT22;11128;51.096;17.190;2023-03-05T03:46:28;0.40;62.30
21928;DHT22;11128;51.096;17.190;2023-03-05T03:51:29;0.30;99.90
21928;DHT22;11128;51.096;17.190;2023-03-05T03:56:30;0.20;1.00
21928;DHT22;11128;51.096;17.190;2023-03-05T04:01:32;0.20;99.90
21928;DHT22;11128;51.096;17.190;2023-03-05T04:06:33;0.20;1.00
21928;DHT22;11128;51.096;17.190;2023-03-05T04:11:36;0.10;1.00
21928;DHT22;11128;51.096;17.190;2023-03-05T04:16:37;0.20;1.00
21928;DHT22;11128;51.096;17.190;2023-03-05T04:21:38;0.20;1.00
21928;DHT22;11128;51.096;17.190;2023-03-05T04:26:40;0.20;1.00
21928;DHT22;11128;51.096;17.190;2023-03-05T04:31:41;0.20;99.90
21928;DHT22;11128;51.096;17.190;2023-03-05T04:36:42;0.20;1.00
21928;DHT22;11128;51.096;17.190;2023-03-05T04:41:44;0.20;1.00
21928;DHT22;11128;51.096;17.190;2023-03-05T04:46:45;0.40;1.00
21928;DHT22;11128;51.096;17.190;2023-03-05T04:51:46;1.50;1.00
21928;DHT22;11128;51.096;17.190;2023-03-05T04:56:48;0.20;1.00
21928;DHT22;11128;51.096;17.190;2023-03-05T05:01:49;0.30;1.00
21928;DHT22;11128;51.096;17.190;2023-03-05T05:06:54;0.30;1.00
21928;DHT22;11128;51.096;17.190;2023-03-05T05:11:56;0.30;53.90
21928;DHT22;11128;51.096;17.190;2023-03-05T05:16:57;0.30;99.90
21928;DHT22;11128;51.096;17.190;2023-03-05T05:21:59;0.30;99.90
21928;DHT22;11128;51.096;17.190;2023-03-05T05:27:01;1.40;99.90
21928;DHT22;11128;51.096;17.190;2023-03-05T05:32:02;0.30;1.00
21928;DHT22;11128;51.096;17.190;2023-03-05T05:37:03;1.60;1.00
21928;DHT22;11128;51.096;17.190;2023-03-05T05:42:05;0.50;6.50
21928;DHT22;11128;51.096;17.190;2023-03-05T05:47:06;0.30;1.00
21928;DHT22;11128;51.096;17.190;2023-03-05T05:52:07;0.50;1.00
21928;DHT22;11128;51.096;17.190;2023-03-05T05:57:09;0.50;99.90
21928;DHT22;11128;51.096;17.190;2023-03-05T06:02:10;0.60;53.50
21928;DHT22;11128;51.096;17.190;2023-03-05T06:07:11;0.60;1.00
21928;DHT22;11128;51.096;17.190;2023-03-05T06:12:12;0.60;1.00
21928;DHT22;11128;51.096;17.190;2023-03-05T06:17:14;1.10;1.00
21928;DHT22;11128;51.096;17.190;2023-03-05T06:22:15;0.50;1.00
21928;DHT22;11128;51.096;17.190;2023-03-05T06:27:16;0.50;99.90
21928;DHT22;11128;51.096;17.190;2023-03-05T06:32:17;0.50;99.90
21928;DHT22;11128;51.096;17.190;2023-03-05T06:37:19;0.80;99.90
21928;DHT22;11128;51.096;17.190;2023-03-05T06:42:20;0.40;99.90
21928;DHT22;11128;51.096;17.190;2023-03-05T06:47:21;0.50;1.00
21928;DHT22;11128;51.096;17.190;2023-03-05T06:52:22;0.40;99.90
21928;DHT22;11128;51.096;17.190;2023-03-05T06:57:23;0.40;99.90
21928;DHT22;11128;51.096;17.190;2023-03-05T07:02:25;1.60;99.90
21928;DHT22;11128;51.096;17.190;2023-03-05T07:07:26;0.30;99.90
21928;DHT22;11128;51.096;17.190;2023-03-05T07:12:27;0.60;99.90
21928;DHT22;11128;51.096;17.190;2023-03-05T07:17:28;0.60;99.90
21928;DHT22;11128;51.096;17.190;2023-03-05T07:22:30;1.30;99.90
21928;DHT22;11128;51.096;17.190;2023-03-05T07:27:36;2.00;99.90
21928;DHT22;11128;51.096;17.190;2023-03-05T07:32:37;1.30;99.90
21928;DHT22;11128;51.096;17.190;2023-03-05T07:37:39;1.50;99.90
21928;DHT22;11128;51.096;17.190;2023-03-05T07:42:40;1.10;15.20
21928;DHT22;11128;51.096;17.190;2023-03-05T07:47:41;1.20;1.00
21928;DHT22;11128;51.096;17.190;2023-03-05T07:52:43;1.30;99.90
21928;DHT22;11128;51.096;17.190;2023-03-05T07:57:44;2.90;1.00
21928;DHT22;11128;51.096;17.190;2023-03-05T08:02:45;1.50;1.00
21928;DHT22;11128;51.096;17.190;2023-03-05T08:07:47;1.60;1.00
21928;DHT22;11128;51.096;17.190;2023-03-05T08:12:49;1.90;99.90
21928;DHT22;11128;51.096;17.190;2023-03-05T08:17:50;1.70;99.90
21928;DHT22;11128;51.096;17.190;2023-03-05T08:22:51;1.80;1.00
21928;DHT22;11128;51.096;17.190;2023-03-05T08:27:52;1.70;3.70
21928;DHT22;11128;51.096;17.190;2023-03-05T08:32:55;1.70;1.00
21928;DHT22;11128;51.096;17.190;2023-03-05T08:37:57;1.70;99.90
21928;DHT22;11128;51.096;17.190;2023-03-05T08:42:58;1.30;85.10
21928;DHT22;11128;51.096;17.190;2023-03-05T08:48:00;1.30;99.90
21928;DHT22;11128;51.096;17.190;2023-03-05T08:53:02;2.30;99.90
21928;DHT22;11128;51.096;17.190;2023-03-05T08:58:04;1.50;1.00
21928;DHT22;11128;51.096;17.190;2023-03-05T09:03:05;1.50;1.00
21928;DHT22;11128;51.096;17.190;2023-03-05T09:08:06;1.60;99.90
21928;DHT22;11128;51.096;17.190;2023-03-05T09:13:08;1.70;1.00
21928;DHT22;11128;51.096;17.190;2023-03-05T09:18:10;1.70;1.00
21928;DHT22;11128;51.096;17.190;2023-03-05T09:23:11;2.60;1.00
21928;DHT22;11128;51.096;17.190;2023-03-05T09:28:13;2.60;1.00
21928;DHT22;11128;51.096;17.190;2023-03-05T09:33:14;2.60;99.90
21928;DHT22;11128;51.096;17.190;2023-03-05T09:38:15;1.70;1.00
21928;DHT22;11128;51.096;17.190;2023-03-05T09:54:48;1.80;1.00
21928;DHT22;11128;51.096;17.190;2023-03-05T09:59:56;1.70;97.20
21928;DHT22;11128;51.096;17.190;2023-03-05T10:05:24;2.00;1.00
21928;DHT22;11128;51.096;17.190;2023-03-05T10:10:48;1.90;1.00
21928;DHT22;11128;51.096;17.190;2023-03-05T10:21:19;2.30;99.90
21928;DHT22;11128;51.096;17.190;2023-03-05T10:47:28;3.50;1.00
21928;DHT22;11128;51.096;17.190;2023-03-05T10:52:35;3.60;1.00
21928;DHT22;11128;51.096;17.190;2023-03-05T10:57:38;4.60;1.00
21928;DHT22;11128;51.096;17.190;2023-03-05T11:02:59;4.40;1.00
21928;DHT22;11128;51.096;17.190;2023-03-05T11:13:26;2.80;1.00
21928;DHT22;11128;51.096;17.190;2023-03-05T11:18:28;3.30;1.00
21928;DHT22;11128;51.096;17.190;2023-03-05T11:23:34;2.50;1.00
21928;DHT22;11128;51.096;17.190;2023-03-05T11:28:43;3.00;1.00
21928;DHT22;11128;51.096;17.190;2023-03-05T11:34:00;2.60;99.90
21928;DHT22;11128;51.096;17.190;2023-03-05T11:44:13;2.30;99.90
21928;DHT22;11128;51.096;17.190;2023-03-05T11:49:19;3.00;1.00
21928;DHT22;11128;51.096;17.190;2023-03-05T11:54:25;3.50;1.00
21928;DHT22;11128;51.096;17.190;2023-03-05T11:59:34;3.30;99.90
21928;DHT22;11128;51.096;17.190;2023-03-05T12:04:39;4.20;1.00
21928;DHT22;11128;51.096;17.190;2023-03-05T12:09:48;4.30;1.00
21928;DHT22;11128;51.096;17.190;2023-03-05T12:14:57;3.80;1.00
21928;DHT22;11128;51.096;17.190;2023-03-05T12:20:16;3.70;1.00
21928;DHT22;11128;51.096;17.190;2023-03-05T12:25:30;5.90;1.00
21928;DHT22;11128;51.096;17.190;2023-03-05T12:35:42;3.60;1.00
21928;DHT22;11128;51.096;17.190;2023-03-05T12:40:44;3.60;1.00
21928;DHT22;11128;51.096;17.190;2023-03-05T12:45:45;3.50;1.00
21928;DHT22;11128;51.096;17.190;2023-03-05T12:50:47;3.70;99.90
21928;DHT22;11128;51.096;17.190;2023-03-05T13:01:22;3.30;1.00
21928;DHT22;11128;51.096;17.190;2023-03-05T13:06:34;3.20;1.00
21928;DHT22;11128;51.096;17.190;2023-03-05T13:11:37;2.90;1.00
21928;DHT22;11128;51.096;17.190;2023-03-05T13:16:39;3.70;24.10
21928;DHT22;11128;51.096;17.190;2023-03-05T13:21:41;2.40;1.00
21928;DHT22;11128;51.096;17.190;2023-03-05T13:26:43;2.00;1.00
21928;DHT22;11128;51.096;17.190;2023-03-05T13:37:18;1.60;99.90
21928;DHT22;11128;51.096;17.190;2023-03-05T13:42:32;1.50;1.00
21928;DHT22;11128;51.096;17.190;2023-03-05T13:47:35;2.00;1.00
21928;DHT22;11128;51.096;17.190;2023-03-05T13:52:37;2.10;99.90
21928;DHT22;11128;51.096;17.190;2023-03-05T13:57:44;2.00;1.00
21928;DHT22;11128;51.096;17.190;2023-03-05T14:02:45;1.60;1.00
21928;DHT22;11128;51.096;17.190;2023-03-05T14:07:49;1.60;99.90
21928;DHT22;11128;51.096;17.190;2023-03-05T14:12:51;1.50;1.00
21928;DHT22;11128;51.096;17.190;2023-03-05T14:28:41;2.50;1.00
21928;DHT22;11128;51.096;17.190;2023-03-05T14:33:43;2.00;1.00
21928;DHT22;11128;51.096;17.190;2023-03-05T14:38:45;3.50;1.00
21928;DHT22;11128;51.096;17.190;2023-03-05T14:43:46;5.00;1.00
21928;DHT22;11128;51.096;17.190;2023-03-05T14:48:47;4.30;1.00
21928;DHT22;11128;51.096;17.190;2023-03-05T14:53:49;4.30;1.00
21928;DHT22;11128;51.096;17.190;2023-03-05T14:58:51;4.20;1.00
21928;DHT22;11128;51.096;17.190;2023-03-05T15:03:53;3.70;1.00
21928;DHT22;11128;51.096;17.190;2023-03-05T15:08:54;3.50;1.00
21928;DHT22;11128;51.096;17.190;2023-03-05T15:13:55;3.10;1.00
21928;DHT22;11128;51.096;17.190;2023-03-05T15:18:57;3.00;92.00
21928;DHT22;11128;51.096;17.190;2023-03-05T15:23:58;2.90;92.40
21928;DHT22;11128;51.096;17.190;2023-03-05T15:28:59;2.90;72.00
21928;DHT22;11128;51.096;17.190;2023-03-05T15:34:01;2.80;99.90
21928;DHT22;11128;51.096;17.190;2023-03-05T15:39:03;2.70;1.00
21928;DHT22;11128;51.096;17.190;2023-03-05T15:44:04;2.60;1.00
21928;DHT22;11128;51.096;17.190;2023-03-05T15:49:06;2.40;1.00
21928;DHT22;11128;51.096;17.190;2023-03-05T15:54:07;2.20;1.00
21928;DHT22;11128;51.096;17.190;2023-03-05T15:59:09;2.00;1.00
21928;DHT22;11128;51.096;17.190;2023-03-05T16:04:10;1.90;1.00
21928;DHT22;11128;51.096;17.190;2023-03-05T16:09:12;1.80;99.90
21928;DHT22;11128;51.096;17.190;2023-03-05T16:14:17;2.30;99.90
21928;DHT22;11128;51.096;17.190;2023-03-05T16:19:20;1.50;99.90
21928;DHT22;11128;51.096;17.190;2023-03-05T16:24:22;1.40;1.00
21928;DHT22;11128;51.096;17.190;2023-03-05T16:29:24;1.40;99.90
21928;DHT22;11128;51.096;17.190;2023-03-05T16:34:26;1.30;45.90
21928;DHT22;11128;51.096;17.190;2023-03-05T16:39:27;1.40;1.00
21928;DHT22;11128;51.096;17.190;2023-03-05T16:44:28;1.30;1.00
21928;DHT22;11128;51.096;17.190;2023-03-05T16:49:29;1.20;21.10
21928;DHT22;11128;51.096;17.190;2023-03-05T16:54:31;1.20;99.90
21928;DHT22;11128;51.096;17.190;2023-03-05T16:59:33;1.20;1.00
21928;DHT22;11128;51.096;17.190;2023-03-05T17:04:34;1.10;1.00
21928;DHT22;11128;51.096;17.190;2023-03-05T17:09:37;1.10;25.00
21928;DHT22;11128;51.096;17.190;2023-03-05T17:14:39;1.80;99.90
21928;DHT22;11128;51.096;17.190;2023-03-05T17:19:40;1.00;99.90
21928;DHT22;11128;51.096;17.190;2023-03-05T17:24:41;1.00;99.90
21928;DHT22;11128;51.096;17.190;2023-03-05T17:29:44;1.00;1.00
21928;DHT22;11128;51.096;17.190;2023-03-05T17:34:45;1.00;1.00
21928;DHT22;11128;51.096;17.190;2023-03-05T17:39:47;0.90;1.00
21928;DHT22;11128;51.096;17.190;2023-03-05T17:44:48;0.90;1.00
21928;DHT22;11128;51.096;17.190;2023-03-05T17:49:50;0.80;1.00
21928;DHT22;11128;51.096;17.190;2023-03-05T17:54:51;2.60;1.00
21928;DHT22;11128;51.096;17.190;2023-03-05T17:59:53;0.80;1.00
21928;DHT22;11128;51.096;17.190;2023-03-05T18:04:55;0.80;1.00
21928;DHT22;11128;51.096;17.190;2023-03-05T18:09:56;0.80;1.00
21928;DHT22;11128;51.096;17.190;2023-03-05T18:14:57;0.80;1.00
21928;DHT22;11128;51.096;17.190;2023-03-05T18:19:59;1.70;1.00
21928;DHT22;11128;51.096;17.190;2023-03-05T18:25:00;1.60;1.00
21928;DHT22;11128;51.096;17.190;2023-03-05T18:30:02;1.60;8.20
21928;DHT22;11128;51.096;17.190;2023-03-05T18:35:05;0.40;99.90
21928;DHT22;11128;51.096;17.190;2023-03-05T18:40:07;0.40;99.90
21928;DHT22;11128;51.096;17.190;2023-03-05T18:45:15;0.40;99.90
21928;DHT22;11128;51.096;17.190;2023-03-05T18:50:16;0.40;99.90
21928;DHT22;11128;51.096;17.190;2023-03-05T18:55:27;0.30;99.90
21928;DHT22;11128;51.096;17.190;2023-03-05T19:00:30;0.30;99.90
21928;DHT22;11128;51.096;17.190;2023-03-05T19:05:32;0.20;99.90
21928;DHT22;11128;51.096;17.190;2023-03-05T19:10:35;0.60;99.90
21928;DHT22;11128;51.096;17.190;2023-03-05T19:15:38;0.90;99.90
21928;DHT22;11128;51.096;17.190;2023-03-05T19:20:40;0.50;99.90
21928;DHT22;11128;51.096;17.190;2023-03-05T19:25:42;0.00;99.90
21928;DHT22;11128;51.096;17.190;2023-03-05T19:30:47;0.00;99.90
21928;DHT22;11128;51.096;17.190;2023-03-05T19:35:49;0.00;99.90
21928;DHT22;11128;51.096;17.190;2023-03-05T19:40:50;0.00;99.90
21928;DHT22;11128;51.096;17.190;2023-03-05T19:45:52;-0.10;99.90
21928;DHT22;11128;51.096;17.190;2023-03-05T19:50:53;-0.10;99.90
21928;DHT22;11128;51.096;17.190;2023-03-05T19:55:54;-0.10;99.90
21928;DHT22;11128;51.096;17.190;2023-03-05T20:01:09;0.20;99.90
21928;DHT22;11128;51.096;17.190;2023-03-05T20:06:10;-0.10;99.90
21928;DHT22;11128;51.096;17.190;2023-03-05T20:11:14;-0.10;99.90
21928;DHT22;11128;51.096;17.190;2023-03-05T20:16:20;0.90;99.90
21928;DHT22;11128;51.096;17.190;2023-03-05T20:21:28;0.00;99.90
21928;DHT22;11128;51.096;17.190;2023-03-05T20:26:33;0.00;99.90
21928;DHT22;11128;51.096;17.190;2023-03-05T20:31:36;-0.10;99.90
21928;DHT22;11128;51.096;17.190;2023-03-05T20:36:38;0.20;99.90
21928;DHT22;11128;51.096;17.190;2023-03-05T20:41:40;0.00;99.90
21928;DHT22;11128;51.096;17.190;2023-03-05T20:46:42;-0.10;99.90
21928;DHT22;11128;51.096;17.190;2023-03-05T20:51:52;-0.10;99.90
21928;DHT22;11128;51.096;17.190;2023-03-05T20:56:53;-0.10;99.90
21928;DHT22;11128;51.096;17.190;2023-03-05T21:01:55;1.00;99.90
21928;DHT22;11128;51.096;17.190;2023-03-05T21:06:56;0.00;99.90
21928;DHT22;11128;51.096;17.190;2023-03-05T21:11:58;0.00;99.90
21928;DHT22;11128;51.096;17.190;2023-03-05T21:16:59;0.00;99.90
21928;DHT22;11128;51.096;17.190;2023-03-05T21:22:00;0.10;99.90
21928;DHT22;11128;51.096;17.190;2023-03-05T21:27:02;0.60;99.90
21928;DHT22;11128;51.096;17.190;2023-03-05T21:32:03;0.00;99.90
21928;DHT22;11128;51.096;17.190;2023-03-05T21:37:05;0.00;99.90
21928;DHT22;11128;51.096;17.190;2023-03-05T21:42:07;0.20;99.90
21928;DHT22;11128;51.096;17.190;2023-03-05T21:47:13;0.00;99.90
21928;DHT22;11128;51.096;17.190;2023-03-05T21:52:14;0.00;99.90
21928;DHT22;11128;51.096;17.190;2023-03-05T21:57:15;0.80;99.90
21928;DHT22;11128;51.096;17.190;2023-03-05T22:02:18;0.00;99.90
21928;DHT22;11128;51.096;17.190;2023-03-05T22:07:20;0.10;99.90
21928;DHT22;11128;51.096;17.190;2023-03-05T22:12:23;0.10;99.90
21928;DHT22;11128;51.096;17.190;2023-03-05T22:17:39;0.10;99.90
21928;DHT22;11128;51.096;17.190;2023-03-05T22:22:40;0.10;99.90
21928;DHT22;11128;51.096;17.190;2023-03-05T22:27:42;0.10;99.90
21928;DHT22;11128;51.096;17.190;2023-03-05T22:32:44;0.10;99.90
21928;DHT22;11128;51.096;17.190;2023-03-05T22:37:45;0.10;99.90
21928;DHT22;11128;51.096;17.190;2023-03-05T22:42:47;0.10;1.00
21928;DHT22;11128;51.096;17.190;2023-03-05T22:47:48;0.40;99.90
21928;DHT22;11128;51.096;17.190;2023-03-05T22:52:50;0.10;99.90
21928;DHT22;11128;51.096;17.190;2023-03-05T22:57:52;1.10;1.00
21928;DHT22;11128;51.096;17.190;2023-03-05T23:02:53;0.00;1.00
21928;DHT22;11128;51.096;17.190;2023-03-05T23:07:54;0.10;1.00
21928;DHT22;11128;51.096;17.190;2023-03-05T23:12:57;0.10;1.00
21928;DHT22;11128;51.096;17.190;2023-03-05T23:18:00;0.10;1.00
21928;DHT22;11128;51.096;17.190;2023-03-05T23:23:03;0.10;99.90
21928;DHT22;11128;51.096;17.190;2023-03-05T23:28:04;0.10;99.90
21928;DHT22;11128;51.096;17.190;2023-03-05T23:38:12;0.10;99.90
21928;DHT22;11128;51.096;17.190;2023-03-05T23:43:15;0.10;1.00
21928;DHT22;11128;51.096;17.190;2023-03-05T23:48:16;0.00;99.90
21928;DHT22;11128;51.096;17.190;2023-03-05T23:53:20;-0.10;1.00
21928;DHT22;11128;51.096;17.190;2023-03-05T23:58:22;0.90;1.00
